Green Lawn, Missouri
Current Conditions -  °F | °C
As of 6:15 AM on Saturday 20 Dec 2014 (Local Time) from KHAE Reporting Station
Overcast Overcast  
Wind Chill: 34°   Ceiling: 800
Heat Index: 34°   Visibility: 7mi
Dew Point: 28°   Wind: 3mph
Humidity: 81%   Direction: 140°SE
Pressure: 30.23"   Gusts: NA
Location:  39.4063°N, 91.6511°W
Report Text: KHAE 201215Z AUTO 14003KT 7SM BKN008 OVC014 01/M02 A3023 RMK AO2
Loading
Personal Weather Stations






























Interactive Weather Map New forecast layout! Learn more

10-Day Weather Forecast

Advertisements
Track Severe Weather on mobile